< < Back
Terminal Aerodrome Forecast


Current Version              Previous Versions:   1  2  3  4  5  6  7  8  9  

Terminal Aerodrome Forecast

760
FTUS44 KOHX 162300
TAFCSV
TAF
KCSV 162320Z 1700/1724 13003KT P6SM BKN250
     FM171400 16007KT P6SM SCT035 BKN250=

Latest METAR

670
SAUS70 KWBC 170400 RRC
MTRCSV
METAR KCSV 170353Z AUTO 16005KT 10SM CLR 08/M02 A3025 RMK AO2 SLP246
T00781022


USA.gov is the U.S. government's official web portal to all federal, state and local government web resources and services.